Time;durP1;ratioP1;P1;durP2;ratioP2;P2;SDS_P1;SDS_P2;PMS_P1;PMS_P2;Temp;Humidity;BMP_temperature;BMP_pressure;BME280_temperature;BME280_humidity;BME280_pressure;Samples;Min_cycle;Max_cycle;Signal;HPM_P1;HPM_P2
2021/03/28 00:01:07;;;;;;;12.48;4.43;;;;;;;2.03;96.47;101873.84;5017074;28;20052;-75
2021/03/28 00:03:46;;;;;;;15.85;5.40;;;;;;;2.23;96.07;101869.41;5060971;28;20033;-74
2021/03/28 00:06:31;;;;;;;16.50;4.53;;;;;;;2.21;95.47;101873.75;5013787;28;20040;-75
2021/03/28 00:09:16;;;;;;;13.80;5.25;;;;;;;2.20;95.86;101873.75;5040230;28;20125;-72
2021/03/28 00:12:08;;;;;;;14.48;4.35;;;;;;;2.20;95.79;101874.59;5023087;28;20050;-74
2021/03/28 00:14:34;;;;;;;12.50;5.68;;;;;;;2.35;95.68;101878.03;5019765;28;20090;-75
2021/03/28 00:17:06;;;;;;;12.40;5.80;;;;;;;2.22;94.96;101877.22;5040652;28;20072;-75
2021/03/28 00:19:34;;;;;;;10.60;6.20;;;;;;;2.26;95.36;101874.59;5021050;28;20456;-75
2021/03/28 00:22:04;;;;;;;13.07;5.80;;;;;;;2.22;95.35;101880.66;5035754;28;20052;-75
2021/03/28 00:24:38;;;;;;;13.43;5.32;;;;;;;2.14;95.88;101878.97;5015527;28;20049;-75
2021/03/28 00:27:13;;;;;;;11.20;5.38;;;;;;;2.10;95.83;101883.31;5040240;28;20391;-76
2021/03/28 00:29:55;;;;;;;11.52;4.88;;;;;;;2.02;96.34;101878.13;5024923;28;20049;-76
2021/03/28 00:32:25;;;;;;;11.32;5.32;;;;;;;2.27;99.28;101880.66;5052512;28;20621;-76
2021/03/28 00:35:06;;;;;;;9.88;5.05;;;;;;;2.31;97.03;101873.72;5021777;28;20041;-75
2021/03/28 00:37:33;;;;;;;9.05;4.97;;;;;;;2.16;95.78;101875.50;5038223;28;20088;-76
2021/03/28 00:40:09;;;;;;;16.90;5.35;;;;;;;2.03;96.01;101876.44;5023679;28;20415;-76
2021/03/28 00:42:38;;;;;;;10.98;5.15;;;;;;;2.01;97.96;101886.81;5033649;28;20095;-75
2021/03/28 00:45:23;;;;;;;18.73;5.38;;;;;;;2.22;96.25;101885.00;5051772;28;20132;-74
2021/03/28 00:48:05;;;;;;;15.63;5.63;;;;;;;2.05;96.67;101887.66;5041248;28;20045;-76
2021/03/28 00:50:35;;;;;;;12.50;4.78;;;;;;;2.10;96.33;101869.47;5030044;28;20036;-77
2021/03/28 00:53:06;;;;;;;13.10;5.93;;;;;;;1.93;96.56;101879.91;5030216;28;20143;-74
2021/03/28 00:55:38;;;;;;;11.40;5.00;;;;;;;2.02;96.43;101872.94;5015612;28;20051;-75
2021/03/28 00:58:39;;;;;;;9.80;5.20;;;;;;;2.07;96.54;101883.31;5039041;28;20155;-75
2021/03/28 01:01:22;;;;;;;13.93;5.53;;;;;;;2.05;95.96;101889.41;5025042;28;20052;-75
2021/03/28 01:04:21;;;;;;;15.75;4.72;;;;;;;1.99;96.27;101885.97;5022010;28;20048;-76
2021/03/28 01:06:53;;;;;;;13.32;4.70;;;;;;;2.15;96.38;101896.28;5036185;28;20549;-75
2021/03/28 01:09:26;;;;;;;9.90;4.35;;;;;;;2.26;95.55;101897.13;5043159;28;20368;-75
2021/03/28 01:12:05;;;;;;;14.75;4.60;;;;;;;2.07;95.64;101891.09;5031697;28;20049;-75
2021/03/28 01:14:46;;;;;;;11.07;4.68;;;;;;;2.14;96.19;101894.56;5038378;28;20048;-75
2021/03/28 01:17:30;;;;;;;16.20;5.78;;;;;;;2.15;95.92;101893.69;5034470;28;20104;-75
2021/03/28 01:20:19;;;;;;;12.45;4.68;;;;;;;2.02;95.85;101901.50;5033714;28;20371;-74
2021/03/28 01:22:58;;;;;;;14.73;4.55;;;;;;;2.19;94.99;101896.25;5057937;28;20053;-75
2021/03/28 01:25:49;;;;;;;13.55;4.97;;;;;;;2.06;95.16;101904.97;5036673;28;20489;-76
2021/03/28 01:28:33;;;;;;;14.00;4.90;;;;;;;2.15;95.35;101904.06;5043999;28;20225;-76
2021/03/28 01:31:36;;;;;;;12.93;5.35;;;;;;;2.08;95.66;101908.44;5037737;28;20061;-75
2021/03/28 01:34:09;;;;;;;9.77;4.63;;;;;;;2.14;95.28;101921.41;5021440;28;20040;-74
2021/03/28 01:36:45;;;;;;;9.25;4.18;;;;;;;2.09;95.40;101915.34;5059331;28;20087;-76
2021/03/28 01:39:24;;;;;;;12.07;6.10;;;;;;;2.07;95.68;101921.41;5031775;28;20044;-74
2021/03/28 01:41:59;;;;;;;16.50;5.35;;;;;;;2.19;96.09;101921.38;5050185;28;20466;-74
2021/03/28 01:44:37;;;;;;;14.80;4.83;;;;;;;2.11;95.29;101921.41;5053192;28;20044;-73
2021/03/28 01:47:38;;;;;;;21.25;5.60;;;;;;;2.15;95.03;101919.66;5013855;28;20049;-74
2021/03/28 01:50:13;;;;;;;14.73;5.32;;;;;;;2.15;95.49;101917.06;5038595;28;20627;-74
2021/03/28 01:52:49;;;;;;;11.30;4.68;;;;;;;2.16;95.61;101916.19;5056960;28;20056;-75
2021/03/28 01:55:44;;;;;;;15.57;5.25;;;;;;;2.20;95.39;101910.13;5032786;28;20439;-74
2021/03/28 01:58:23;;;;;;;10.00;4.43;;;;;;;2.20;94.64;101904.91;5032250;28;20045;-73
2021/03/28 02:01:24;;;;;;;17.40;4.85;;;;;;;2.06;94.90;101917.09;5035297;28;20252;-73
2021/03/28 02:04:04;;;;;;;13.88;5.50;;;;;;;2.02;95.41;101916.22;4994621;28;20075;-73
2021/03/28 02:06:37;;;;;;;17.63;4.60;;;;;;;1.92;96.12;101911.94;5014067;28;20174;-73
2021/03/28 02:09:29;;;;;;;32.10;5.82;;;;;;;2.01;96.20;101912.78;5028799;28;20066;-74
2021/03/28 02:12:01;;;;;;;12.57;4.70;;;;;;;1.93;95.96;101916.25;5022019;28;20520;-73
2021/03/28 02:14:41;;;;;;;12.38;4.95;;;;;;;1.88;96.52;101913.69;5054145;28;20391;-73
2021/03/28 02:17:40;;;;;;;16.65;4.78;;;;;;;1.87;96.36;101908.50;5019789;28;20511;-74
2021/03/28 02:20:23;;;;;;;12.30;4.45;;;;;;;1.82;96.65;101899.84;5011629;28;20056;-72
2021/03/28 02:23:13;;;;;;;24.23;5.25;;;;;;;2.01;95.79;101902.38;5038166;28;20045;-72
2021/03/28 02:25:53;;;;;;;24.00;5.25;;;;;;;1.89;96.06;101904.16;5036783;28;20577;-74
2021/03/28 02:28:41;;;;;;;16.52;5.18;;;;;;;1.86;96.36;101905.03;5008666;28;20071;-72
2021/03/28 02:31:28;;;;;;;13.13;5.13;;;;;;;1.76;96.97;101916.31;5030245;28;20234;-74
2021/03/28 02:34:07;;;;;;;18.17;4.70;;;;;;;1.72;96.73;101915.47;5010553;28;20045;-72
2021/03/28 02:36:40;;;;;;;14.23;5.30;;;;;;;1.76;96.62;101929.31;5052622;28;20183;-72
2021/03/28 02:39:23;;;;;;;13.27;4.90;;;;;;;1.73;97.02;101924.97;5034693;28;20065;-73
2021/03/28 02:42:02;;;;;;;23.00;5.40;;;;;;;1.93;96.19;101924.91;5014153;28;20049;-73
2021/03/28 02:44:41;;;;;;;22.38;5.13;;;;;;;1.99;96.05;101926.66;5038832;28;20048;-74
2021/03/28 02:47:30;;;;;;;19.15;4.95;;;;;;;1.96;96.03;101919.72;5048807;28;20132;-75
2021/03/28 02:50:18;;;;;;;14.15;4.80;;;;;;;1.83;96.14;101919.75;5043491;28;20067;-72
2021/03/28 02:53:10;;;;;;;19.98;6.75;;;;;;;1.75;96.50;101938.78;5039239;28;20095;-72
2021/03/28 02:56:04;;;;;;;15.20;5.32;;;;;;;1.69;97.53;101940.56;5026766;28;20033;-74
2021/03/28 02:58:53;;;;;;;13.27;4.60;;;;;;;1.81;96.80;101940.53;5054723;28;20505;-74
2021/03/28 03:01:33;;;;;;;17.35;5.50;;;;;;;1.64;96.88;101943.16;5014238;28;20049;-74
2021/03/28 03:04:24;;;;;;;20.95;5.55;;;;;;;1.73;97.00;101932.75;5046822;28;21436;-74
2021/03/28 03:07:26;;;;;;;18.45;5.00;;;;;;;1.83;96.92;101953.50;5033740;28;20067;-74
2021/03/28 03:10:23;;;;;;;20.27;5.85;;;;;;;1.64;97.19;101937.97;5011429;28;20076;-73
2021/03/28 03:13:03;;;;;;;18.98;4.65;;;;;;;1.61;97.36;101950.94;4989704;28;20048;-73
2021/03/28 03:15:48;;;;;;;18.38;5.00;;;;;;;1.67;97.34;101943.16;5013084;28;20402;-74
2021/03/28 03:18:46;;;;;;;17.85;5.55;;;;;;;1.58;97.37;101943.16;5034620;28;20127;-74
2021/03/28 03:21:35;;;;;;;21.60;5.15;;;;;;;1.82;96.93;101944.84;5054078;28;20575;-74
2021/03/28 03:24:14;;;;;;;19.25;5.22;;;;;;;1.71;96.08;101950.06;5046005;28;20037;-74
2021/03/28 03:27:19;;;;;;;15.70;4.90;;;;;;;1.67;96.99;101947.50;5056433;28;20068;-72
2021/03/28 03:30:04;;;;;;;20.42;6.03;;;;;;;1.45;97.26;101957.00;5036162;28;20047;-73
2021/03/28 03:32:35;;;;;;;13.65;5.38;;;;;;;1.40;98.23;101956.16;5045521;28;20045;-74
2021/03/28 03:35:24;;;;;;;18.17;5.30;;;;;;;1.36;97.97;101963.06;5034068;28;20060;-74
2021/03/28 03:38:01;;;;;;;23.27;6.35;;;;;;;1.38;98.52;101960.47;5033218;28;20131;-74
2021/03/28 03:40:39;;;;;;;16.10;5.75;;;;;;;1.32;98.14;101963.06;5018068;28;20081;-74
2021/03/28 03:43:09;;;;;;;21.30;5.53;;;;;;;1.38;98.34;101966.50;5058670;28;20094;-74
2021/03/28 03:45:50;;;;;;;19.05;6.18;;;;;;;1.33;97.99;101973.44;5061413;28;20048;-75
2021/03/28 03:48:33;;;;;;;19.95;6.03;;;;;;;1.39;98.04;101972.56;5043289;28;20602;-73
2021/03/28 03:51:12;;;;;;;15.25;5.05;;;;;;;1.11;98.21;101979.44;5047565;28;20063;-74
2021/03/28 03:53:48;;;;;;;19.35;6.18;;;;;;;1.19;98.72;101975.16;5037108;28;20040;-74
2021/03/28 03:56:16;;;;;;;;;;;;;;;1.40;98.66;101977.78;5016296;28;20057;-74
2021/03/28 03:59:16;;;;;;;23.38;7.72;;;;;;;1.49;97.36;101976.91;5000700;28;19968;-72
2021/03/28 04:02:05;;;;;;;13.38;5.22;;;;;;;1.51;96.96;101980.34;5039312;28;20049;-74
2021/03/28 04:05:08;;;;;;;16.67;5.30;;;;;;;1.55;96.93;101983.81;5013476;28;20079;-73
2021/03/28 04:08:02;;;;;;;19.98;5.28;;;;;;;1.48;96.70;101978.63;5048782;28;20125;-72
2021/03/28 04:10:59;;;;;;;14.30;4.90;;;;;;;1.39;96.43;101983.78;5015725;28;20676;-73
2021/03/28 04:13:25;;;;;;;12.27;4.50;;;;;;;1.43;96.56;101982.06;5012827;28;20414;-73
2021/03/28 04:16:31;;;;;;;14.45;4.70;;;;;;;1.52;95.99;101989.88;5034189;28;20065;-72
2021/03/28 04:19:21;;;;;;;15.68;4.85;;;;;;;1.33;96.61;101985.53;4958595;28;20058;-74
2021/03/28 04:22:07;;;;;;;21.52;6.07;;;;;;;1.21;96.84;101976.84;5034783;28;20071;-73
2021/03/28 04:25:08;;;;;;;18.23;5.05;;;;;;;1.15;97.34;101979.47;5038681;28;20372;-74
2021/03/28 04:28:12;;;;;;;15.75;6.05;;;;;;;1.17;97.14;101972.56;5052687;28;20047;-74
2021/03/28 04:30:57;;;;;;;13.52;5.90;;;;;;;1.13;97.27;101975.16;5038034;28;20036;-73
2021/03/28 04:33:26;;;;;;;16.67;6.47;;;;;;;1.23;97.19;101972.56;5051186;28;20029;-74
2021/03/28 04:36:03;;;;;;;14.30;4.70;;;;;;;1.12;97.22;101974.25;5038448;28;20053;-73
2021/03/28 04:38:36;;;;;;;14.75;5.10;;;;;;;1.07;97.10;101968.19;5018625;28;20124;-74
2021/03/28 04:41:33;;;;;;;16.70;5.90;;;;;;;1.00;97.54;101975.13;5037821;28;20059;-74
2021/03/28 04:44:38;;;;;;;19.38;7.40;;;;;;;1.11;96.88;101975.13;5042020;28;20041;-74
2021/03/28 04:47:45;;;;;;;20.95;5.57;;;;;;;1.14;96.17;101974.28;5026242;28;20055;-73
2021/03/28 04:50:46;;;;;;;14.70;5.07;;;;;;;1.08;96.67;101975.16;4962873;28;20053;-74
2021/03/28 04:53:50;;;;;;;20.38;7.28;;;;;;;0.98;96.73;101983.75;5048422;28;20139;-74
2021/03/28 04:56:19;;;;;;;9.27;5.10;;;;;;;0.96;96.43;101981.16;5049075;28;20053;-74
2021/03/28 04:58:49;;;;;;;17.02;5.40;;;;;;;0.94;97.12;101984.59;5040025;28;20049;-75
2021/03/28 05:01:34;;;;;;;15.27;4.60;;;;;;;1.28;96.16;101988.13;5052229;28;20059;-74
2021/03/28 05:04:29;;;;;;;20.13;5.35;;;;;;;1.36;94.69;101991.59;5027970;28;20058;-74
2021/03/28 05:07:12;;;;;;;19.55;6.28;;;;;;;1.30;94.66;101990.72;5036796;28;20067;-74
2021/03/28 05:10:03;;;;;;;13.35;5.40;;;;;;;1.51;93.60;101994.19;5063904;28;20155;-76
2021/03/28 05:13:08;;;;;;;17.13;6.30;;;;;;;1.60;93.59;101995.06;5017791;28;20132;-74
2021/03/28 05:16:09;;;;;;;13.50;4.40;;;;;;;1.58;93.42;102000.28;5054445;28;20128;-74
2021/03/28 05:19:12;;;;;;;11.18;4.20;;;;;;;2.00;90.85;101999.38;5023887;28;20040;-74
2021/03/28 05:22:03;;;;;;;17.27;5.35;;;;;;;1.99;90.82;102001.97;5056359;28;20057;-74
2021/03/28 05:24:55;;;;;;;9.77;4.30;;;;;;;1.98;90.15;102000.22;5054206;28;20029;-72
2021/03/28 05:27:55;;;;;;;12.90;4.88;;;;;;;1.84;90.38;102004.56;5033745;28;20063;-74
2021/03/28 05:30:43;;;;;;;20.60;5.03;;;;;;;1.94;89.94;102007.16;5055294;28;20498;-74
2021/03/28 05:33:30;;;;;;;12.80;5.03;;;;;;;2.01;89.46;102008.00;5042226;28;20067;-73
2021/03/28 05:36:11;;;;;;;16.58;5.65;;;;;;;2.10;88.40;102004.53;5032909;28;20132;-74
2021/03/28 05:38:42;;;;;;;16.20;5.22;;;;;;;2.15;88.40;102002.78;5037051;28;20040;-74
2021/03/28 05:41:27;;;;;;;20.65;6.72;;;;;;;2.00;89.36;101998.50;5036775;28;20041;-74
2021/03/28 05:44:32;;;;;;;17.15;6.13;;;;;;;2.32;87.66;102005.34;5004212;28;20056;-74
2021/03/28 05:47:05;;;;;;;15.55;5.93;;;;;;;2.49;86.57;102003.56;5018071;28;20136;-74
2021/03/28 05:49:42;;;;;;;15.63;6.93;;;;;;;2.32;87.11;102000.16;5028875;28;20045;-74
2021/03/28 05:52:47;;;;;;;14.80;5.50;;;;;;;2.51;nan;102001.81;5021560;28;20127;-73
2021/03/28 05:55:38;;;;;;;12.63;4.72;;;;;;;2.60;85.37;102006.13;5051472;28;20045;-74
2021/03/28 05:58:17;;;;;;;16.55;4.47;;;;;;;3.25;83.55;101997.13;5015079;28;20099;-74
2021/03/28 06:00:44;;;;;;;10.52;4.40;;;;;;;3.64;81.98;101995.09;5061096;28;20053;-74
2021/03/28 06:03:37;;;;;;;10.10;4.43;;;;;;;3.91;79.70;102000.03;5036485;28;20045;-74
2021/03/28 06:06:38;;;;;;;14.68;4.35;;;;;;;3.96;78.66;101990.47;5035925;28;20410;-74
2021/03/28 06:09:33;;;;;;;8.57;4.32;;;;;;;3.99;78.70;101993.03;5043083;28;20051;-74
2021/03/28 06:12:26;;;;;;;11.20;3.95;;;;;;;4.96;74.68;101991.91;5052111;28;20555;-74
2021/03/28 06:15:01;;;;;;;10.68;4.05;;;;;;;5.45;71.97;101994.66;5017276;28;20055;-74
2021/03/28 06:17:52;;;;;;;11.00;4.07;;;;;;;6.21;69.23;102002.06;5046651;28;20049;-74
2021/03/28 06:20:31;;;;;;;11.70;3.60;;;;;;;6.85;65.99;101988.56;5030715;28;20048;-74
2021/03/28 06:24:02;;;;;;;10.88;3.47;;;;;;;8.09;62.47;101996.03;5033573;28;20063;-73
2021/03/28 06:27:08;;;;;;;9.68;3.17;;;;;;;9.55;57.80;102000.50;4946191;28;20539;-76
2021/03/28 06:29:50;;;;;;;9.75;3.45;;;;;;;10.38;53.43;101998.53;4928598;29;20058;-73
2021/03/28 06:32:37;;;;;;;8.45;3.35;;;;;;;10.30;53.66;101999.72;5030597;28;20059;-75
2021/03/28 06:35:31;;;;;;;11.88;3.60;;;;;;;9.89;53.70;102008.13;5039447;28;20518;-75
2021/03/28 06:38:12;;;;;;;9.63;3.80;;;;;;;9.21;56.13;102003.34;5044377;28;20131;-74
2021/03/28 06:40:44;;;;;;;11.27;3.60;;;;;;;8.87;56.67;102004.38;5031116;28;21256;-75
2021/03/28 06:43:39;;;;;;;12.55;3.63;;;;;;;9.09;56.13;101996.69;5035235;28;20239;-77
2021/03/28 06:46:09;;;;;;;11.45;3.90;;;;;;;9.74;53.62;101997.28;5032546;28;20486;-76
2021/03/28 06:48:56;;;;;;;11.70;3.70;;;;;;;9.30;55.32;101997.81;5033809;28;20040;-75
2021/03/28 06:51:39;;;;;;;17.10;3.88;;;;;;;9.33;55.63;102004.75;5034584;28;20144;-75
2021/03/28 06:54:38;;;;;;;7.68;3.67;;;;;;;10.00;53.39;101999.88;5027050;28;20148;-76
2021/03/28 06:57:49;;;;;;;11.25;3.55;;;;;;;10.45;51.98;101993.94;5014573;28;20075;-74
2021/03/28 07:00:32;;;;;;;10.48;3.53;;;;;;;10.98;50.30;101988.38;5030820;28;20119;-74
2021/03/28 07:03:17;;;;;;;10.18;2.83;;;;;;;11.12;49.76;101990.50;5002837;28;20042;-74
2021/03/28 07:05:55;;;;;;;5.90;2.95;;;;;;;12.26;47.10;101984.88;5051633;28;20085;-76
2021/03/28 07:08:45;;;;;;;10.20;3.92;;;;;;;11.82;47.04;101992.94;5056993;28;20068;-75
2021/03/28 07:11:32;;;;;;;8.02;3.63;;;;;;;12.08;46.80;101991.81;5020636;28;20065;-78
2021/03/28 07:14:26;;;;;;;8.20;3.85;;;;;;;12.13;46.34;101989.81;5017738;28;20505;-76
2021/03/28 07:17:30;;;;;;;11.35;4.00;;;;;;;10.58;49.95;101994.31;5052077;28;20059;-75
2021/03/28 07:20:18;;;;;;;10.30;3.33;;;;;;;12.14;46.59;101988.03;5049625;28;20515;-76
2021/03/28 07:23:25;;;;;;;12.18;3.85;;;;;;;11.92;46.57;101990.75;5017662;28;20416;-75
2021/03/28 07:26:01;;;;;;;7.70;3.25;;;;;;;12.30;45.74;101997.00;5030559;28;20040;-75
2021/03/28 07:29:03;;;;;;;11.35;3.78;;;;;;;11.96;46.47;101991.47;5019852;28;20181;-76
2021/03/28 07:31:43;;;;;;;12.68;3.92;;;;;;;11.72;46.90;101990.72;5007815;28;20063;-76
2021/03/28 07:34:48;;;;;;;9.60;3.90;;;;;;;10.83;48.32;101994.25;5019599;28;20495;-75
2021/03/28 07:37:52;;;;;;;6.43;3.70;;;;;;;10.56;49.61;102002.28;5022068;28;20049;-75
2021/03/28 07:40:38;;;;;;;8.80;3.65;;;;;;;11.48;47.36;101996.06;5047929;28;20515;-77
2021/03/28 07:43:42;;;;;;;12.05;3.63;;;;;;;12.73;44.80;101996.84;5037053;28;20315;-75
2021/03/28 07:46:39;;;;;;;10.38;3.70;;;;;;;13.03;43.08;101994.56;5053206;28;20053;-76
2021/03/28 07:49:36;;;;;;;10.95;3.00;;;;;;;13.40;43.01;101991.03;5054902;28;20132;-76
2021/03/28 07:52:24;;;;;;;7.10;3.28;;;;;;;13.18;43.45;101988.53;5057976;28;20579;-75
2021/03/28 07:55:08;;;;;;;14.27;3.63;;;;;;;13.44;42.21;101995.25;5055059;28;20236;-74
2021/03/28 07:58:04;;;;;;;11.20;3.70;;;;;;;13.72;42.00;101989.44;5040594;28;20105;-74
2021/03/28 08:00:39;;;;;;;11.82;3.28;;;;;;;14.07;40.82;101995.59;5028448;28;20045;-75
2021/03/28 08:03:31;;;;;;;7.53;3.13;;;;;;;14.00;40.71;101995.97;5025911;28;20268;-77
2021/03/28 08:06:18;;;;;;;11.40;3.97;;;;;;;13.88;41.09;101995.69;5039565;28;20405;-77
2021/03/28 08:09:16;;;;;;;8.48;2.97;;;;;;;14.06;40.42;101991.22;5017699;28;20081;-76
2021/03/28 08:11:48;;;;;;;9.82;3.60;;;;;;;14.49;39.47;101996.09;5042487;28;20048;-77
2021/03/28 08:14:49;;;;;;;11.52;3.10;;;;;;;13.54;41.76;101993.84;5029737;28;20063;-75
2021/03/28 08:17:31;;;;;;;9.63;3.92;;;;;;;12.82;42.42;101999.94;5001484;28;20057;-75
2021/03/28 08:20:01;;;;;;;9.02;3.00;;;;;;;13.05;42.72;102001.47;5026422;28;20049;-73
2021/03/28 08:22:36;;;;;;;14.25;4.40;;;;;;;11.70;45.50;102001.31;5032904;28;20440;-76
2021/03/28 08:25:30;;;;;;;11.43;3.85;;;;;;;10.66;47.64;102008.06;5030098;28;20178;-75
2021/03/28 08:28:24;;;;;;;14.07;4.40;;;;;;;10.15;49.54;102007.22;5036496;28;20574;-75
2021/03/28 08:31:20;;;;;;;11.38;4.03;;;;;;;9.64;51.22;102002.84;5063476;28;20113;-76
2021/03/28 08:34:17;;;;;;;12.45;4.38;;;;;;;9.55;51.65;102011.03;5041750;28;20054;-76
2021/03/28 08:37:21;;;;;;;17.83;4.15;;;;;;;9.33;53.20;102010.00;5044036;28;20544;-74
2021/03/28 08:39:55;;;;;;;11.85;3.90;;;;;;;9.04;53.31;102014.38;5052243;28;20057;-75
2021/03/28 08:42:32;;;;;;;7.80;3.38;;;;;;;8.81;54.11;102006.31;5056584;28;20485;-75
2021/03/28 08:45:10;;;;;;;12.68;3.75;;;;;;;9.48;53.24;102006.00;5003546;28;20044;-76
2021/03/28 08:48:15;;;;;;;13.52;3.92;;;;;;;10.67;49.52;102003.66;5030073;28;20284;-76
2021/03/28 08:51:07;;;;;;;15.55;3.90;;;;;;;10.95;48.19;102004.34;5020990;28;20051;-75
2021/03/28 08:54:04;;;;;;;14.50;4.55;;;;;;;10.65;48.54;102003.72;5051740;28;20052;-75
2021/03/28 08:56:52;;;;;;;13.50;4.05;;;;;;;10.89;48.32;102001.91;5060214;28;20071;-76
2021/03/28 08:59:36;;;;;;;8.00;3.05;;;;;;;10.90;47.62;101998.41;5041896;28;20124;-75
2021/03/28 09:02:06;;;;;;;10.93;3.65;;;;;;;11.26;48.46;102006.63;5011767;28;20055;-75
2021/03/28 09:04:39;;;;;;;12.77;3.60;;;;;;;11.55;48.91;101996.69;5051958;28;20084;-75
2021/03/28 09:07:33;;;;;;;9.65;3.42;;;;;;;11.58;46.36;101988.66;5056215;28;20057;-75
2021/03/28 09:10:22;;;;;;;10.55;3.17;;;;;;;11.77;45.71;101989.59;5055134;28;20140;-76
2021/03/28 09:13:14;;;;;;;10.60;3.60;;;;;;;11.52;47.57;101991.53;5045848;28;20104;-76
2021/03/28 09:16:12;;;;;;;13.65;3.88;;;;;;;12.10;45.90;101987.31;5039257;28;20467;-74
2021/03/28 09:18:49;;;;;;;9.05;3.50;;;;;;;11.86;47.22;101989.25;5032532;28;20051;-76
2021/03/28 09:21:24;;;;;;;13.00;3.95;;;;;;;11.86;46.93;101983.97;5035291;28;20131;-76
2021/03/28 09:24:07;;;;;;;11.38;3.90;;;;;;;11.61;46.23;101976.19;5033394;28;20053;-75
2021/03/28 09:26:40;;;;;;;11.27;3.40;;;;;;;11.68;45.68;101983.84;5015820;28;20492;-75
2021/03/28 09:29:42;;;;;;;9.52;3.00;;;;;;;11.77;46.24;101976.41;5034372;28;20411;-75
2021/03/28 09:32:50;;;;;;;8.77;3.08;;;;;;;11.57;46.04;101985.16;5036597;28;20098;-74
2021/03/28 09:35:35;;;;;;;14.60;5.15;;;;;;;11.84;46.39;101977.91;4967171;28;20044;-74
2021/03/28 09:38:30;;;;;;;9.80;3.17;;;;;;;11.81;45.81;101978.00;5049678;28;20132;-75
2021/03/28 09:41:27;;;;;;;14.35;3.70;;;;;;;11.70;45.63;101971.44;5054911;28;20537;-74
2021/03/28 09:44:22;;;;;;;16.60;3.70;;;;;;;11.54;46.20;101977.38;5020500;28;20114;-75
2021/03/28 09:47:08;;;;;;;9.65;2.85;;;;;;;11.85;45.91;101973.47;5024083;28;20399;-75
2021/03/28 09:49:38;;;;;;;;;;;;;;;12.18;44.58;101968.50;5017786;28;20049;-75
2021/03/28 09:52:33;;;;;;;14.60;3.30;;;;;;;11.64;45.23;101967.28;5040761;28;19931;-76
2021/03/28 09:55:43;;;;;;;13.10;3.58;;;;;;;11.75;45.29;101970.34;5020749;28;20136;-76
2021/03/28 09:58:13;;;;;;;11.02;3.45;;;;;;;11.85;44.98;101968.19;5054351;28;20053;-76
2021/03/28 10:01:08;;;;;;;16.55;3.97;;;;;;;11.98;45.27;101965.88;5014110;28;20069;-78
2021/03/28 10:03:53;;;;;;;14.68;3.70;;;;;;;12.16;44.65;101965.09;5030626;28;20055;-79
2021/03/28 10:06:21;;;;;;;12.82;3.63;;;;;;;12.36;43.98;101965.03;5036836;28;20102;-76
2021/03/28 10:08:51;;;;;;;17.80;3.38;;;;;;;12.14;44.57;101953.72;5050245;28;20059;-74
2021/03/28 10:11:20;;;;;;;13.18;3.55;;;;;;;12.11;43.66;101965.28;5012271;28;20119;-76
2021/03/28 10:14:12;;;;;;;8.50;3.15;;;;;;;11.81;44.96;101959.53;5050863;28;20044;-76
2021/03/28 10:17:26;;;;;;;10.18;3.47;;;;;;;12.39;43.50;101966.69;5045827;28;20575;-75
2021/03/28 10:20:02;;;;;;;12.90;3.13;;;;;;;12.33;43.82;101948.47;5033042;28;20152;-77
2021/03/28 10:22:46;;;;;;;12.77;3.28;;;;;;;12.36;44.07;101943.91;5012677;28;20053;-75
2021/03/28 10:25:28;;;;;;;10.23;3.40;;;;;;;12.30;44.56;101951.28;5047940;28;20583;-74
2021/03/28 10:28:15;;;;;;;9.73;3.40;;;;;;;12.87;42.84;101952.13;5061416;28;20499;-75
2021/03/28 10:31:21;;;;;;;12.55;3.05;;;;;;;12.48;42.16;101952.22;5018649;28;20049;-76
2021/03/28 10:34:05;;;;;;;15.38;3.78;;;;;;;12.13;43.01;101949.38;5023315;28;20076;-75
2021/03/28 10:36:47;;;;;;;13.63;3.22;;;;;;;11.89;43.41;101948.69;5023379;28;20045;-75
2021/03/28 10:39:39;;;;;;;10.20;3.25;;;;;;;11.99;41.77;101942.06;5028568;28;20057;-76
2021/03/28 10:42:29;;;;;;;11.32;2.85;;;;;;;12.66;41.95;101941.66;5038731;28;20052;-75
2021/03/28 10:45:21;;;;;;;12.60;3.17;;;;;;;12.77;41.83;101945.56;5036878;28;20144;-74
2021/03/28 10:48:11;;;;;;;11.30;3.17;;;;;;;12.32;43.26;101944.13;5030324;28;20049;-78
2021/03/28 10:51:09;;;;;;;14.90;3.42;;;;;;;12.90;42.12;101944.06;5048434;28;20033;-76
2021/03/28 10:53:59;;;;;;;17.23;3.03;;;;;;;13.00;40.87;101936.56;5031286;28;20184;-76
2021/03/28 10:57:37;;;;;;;10.95;4.05;;;;;;;13.36;40.81;101926.84;5025851;28;20128;-75
2021/03/28 11:00:22;;;;;;;13.90;3.50;;;;;;;13.26;41.24;101932.69;4984714;28;20085;-75
2021/03/28 11:03:13;;;;;;;18.75;3.55;;;;;;;13.20;40.58;101933.81;4980819;28;20051;-75
2021/03/28 11:06:04;;;;;;;10.13;2.95;;;;;;;12.95;40.06;101926.19;5010034;28;20059;-76
2021/03/28 11:08:51;;;;;;;11.68;3.70;;;;;;;12.72;41.45;101924.66;5054242;28;20037;-77
2021/03/28 11:11:39;;;;;;;9.45;2.70;;;;;;;12.73;42.23;101923.72;5034597;28;20125;-77
2021/03/28 11:14:38;;;;;;;9.73;2.83;;;;;;;12.48;42.12;101917.88;5050588;28;20071;-77
2021/03/28 11:17:24;;;;;;;17.70;4.03;;;;;;;12.42;43.37;101930.41;5036828;28;20057;-74
2021/03/28 11:20:09;;;;;;;10.75;3.47;;;;;;;12.61;42.58;101925.16;5034276;28;20137;-79
2021/03/28 11:23:16;;;;;;;13.73;3.20;;;;;;;12.49;43.18;101923.09;5030598;28;20051;-74
2021/03/28 11:25:57;;;;;;;10.95;3.22;;;;;;;12.33;43.45;101922.06;5048524;28;20082;-76
2021/03/28 11:28:39;;;;;;;11.68;3.47;;;;;;;12.12;43.73;101922.13;5062156;28;20490;-74
2021/03/28 11:31:25;;;;;;;14.80;4.32;;;;;;;12.18;43.96;101918.34;5035529;28;20106;-76
2021/03/28 11:34:12;;;;;;;19.15;4.13;;;;;;;12.71;43.35;101917.66;5051686;28;20044;-76
2021/03/28 11:36:54;;;;;;;13.10;3.67;;;;;;;12.51;44.19;101926.50;5024742;28;20045;-74
2021/03/28 11:39:22;;;;;;;13.45;3.40;;;;;;;12.49;44.37;101922.25;5014230;28;20059;-75
2021/03/28 11:42:02;;;;;;;9.90;3.63;;;;;;;12.07;45.34;101921.47;5034542;28;20403;-74
2021/03/28 11:44:32;;;;;;;9.18;2.85;;;;;;;12.38;45.30;101917.44;5043527;28;20057;-76
2021/03/28 11:47:21;;;;;;;9.82;2.95;;;;;;;12.42;44.90;101906.66;5027488;28;20570;-75
2021/03/28 11:49:56;;;;;;;13.23;4.28;;;;;;;12.67;44.76;101909.03;5053301;28;20048;-77
2021/03/28 11:52:27;;;;;;;8.60;3.08;;;;;;;12.61;44.90;101906.69;5019467;28;20045;-73
2021/03/28 11:55:04;;;;;;;9.25;3.03;;;;;;;12.50;45.60;101906.31;5019077;28;20044;-76
2021/03/28 11:57:33;;;;;;;11.25;3.65;;;;;;;12.72;44.57;101910.59;5024225;28;20515;-75
2021/03/28 12:00:38;;;;;;;16.55;3.50;;;;;;;13.00;44.86;101910.13;5022322;28;20144;-77
2021/03/28 12:03:20;;;;;;;8.50;3.10;;;;;;;12.78;44.56;101910.28;5030751;28;20459;-75
2021/03/28 12:05:56;;;;;;;8.00;2.80;;;;;;;13.04;44.54;101909.03;5057680;28;20053;-75
2021/03/28 12:08:30;;;;;;;14.10;2.65;;;;;;;13.03;44.07;101904.69;5033083;28;20048;-75
2021/03/28 12:10:59;;;;;;;10.80;3.00;;;;;;;13.48;43.28;101896.28;5023735;28;20402;-73
2021/03/28 12:13:34;;;;;;;9.02;3.38;;;;;;;13.57;42.15;101903.75;5011492;28;20523;-76
2021/03/28 12:16:03;;;;;;;13.35;2.70;;;;;;;13.42;43.36;101905.41;5036205;28;20491;-77
2021/03/28 12:18:31;;;;;;;9.02;2.42;;;;;;;14.09;41.94;101897.50;5016304;28;20049;-74
2021/03/28 12:21:03;;;;;;;7.45;2.90;;;;;;;14.46;40.54;101891.09;5035107;28;20462;-77
2021/03/28 12:23:36;;;;;;;12.18;2.90;;;;;;;13.91;41.77;101904.63;5040856;28;20068;-75
2021/03/28 12:26:15;;;;;;;11.40;2.97;;;;;;;13.70;42.76;101893.41;5037438;28;20054;-75
2021/03/28 12:28:44;;;;;;;10.48;2.90;;;;;;;13.63;43.09;101892.84;5022769;28;20048;-75
2021/03/28 12:31:36;;;;;;;9.18;2.25;;;;;;;13.30;42.52;101889.28;5031966;28;20144;-78
2021/03/28 12:34:03;;;;;;;8.10;2.30;;;;;;;13.49;42.08;101889.19;5055965;28;20067;-75
2021/03/28 12:37:07;;;;;;;8.10;2.28;;;;;;;13.64;42.16;101884.00;5057390;28;20056;-75
2021/03/28 12:39:37;;;;;;;9.23;2.78;;;;;;;13.71;42.18;101887.16;5024622;28;20057;-75
2021/03/28 12:42:04;;;;;;;8.25;2.38;;;;;;;14.06;41.69;101884.47;5022057;28;20061;-76
2021/03/28 12:44:34;;;;;;;6.30;1.88;;;;;;;13.16;42.52;101880.22;5044363;28;20052;-75
2021/03/28 12:47:07;;;;;;;6.38;1.92;;;;;;;12.74;43.40;101877.88;5049206;28;20053;-74
2021/03/28 12:49:34;;;;;;;11.75;2.40;;;;;;;12.45;44.77;101878.41;5044236;28;20052;-74